Joplin Regional Airport
KJLN : now visible

Airfield :











YOU CAN JOIN US ON...

 
LOGIN :

Register | Disclaimer

   EN    FR    IT 

 









Legend :    VFR   Marginal VFR   IFR   Intensive IFR   Very Intensive IFR
Visi :
Ceiling :
>= 8 km
>= 3000ft
5 to 8 km
1000 to 3000 ft
1500m to 5 km
500 to 1000 ft
800 to 1500m
200 to 500 ft
< 800m
< 200 ft
Symbols :   Thunderstorms  Fog  Heavy snow  Heavy precipitations  Wind > 20 kt






- Airport Elevation : 981 ft
- IATA code : JLN


KJLN - Joplin Regional

CURRENT METAR :
  • 231353Z 19009KT 10SM OVC100 08/02 A3005 RMK AO2 RAE04 SLP176 P0000 T00780022

EXPIRED METARs :
  • 231253Z 19011KT 10SM -RA FEW070 OVC090 07/02 A3005 RMK AO2 RAB41 SLP175 P0000 T00720022
  • 231153Z 18011KT 10SM BKN110 07/01 A3005 RMK AO2 SLP177 T00720011 10089 20072 56008

TAF KJLN
Valid from the 23 at 12:00 until the 24 at 12:00 UTC


231136Z 2312/2412 19011KT P6SM VCSH OVC100
TEMPO 2318/2320 4SM -SHRA OVC025
FM232000 20005KT 6SM BR OVC030
TEMPO 2320/2321 4SM -SHRA OVC015
FM232300 00000KT 3SM -SHRA OVC012
FM240800 11005KT 3SM SHRA OVC006 WS020/19030KT



MET'MAP, your aeronautical weather chart ! - Copyright ORBIFLY December 2007 - Disclaimer

ORBIFLY MET'MAP TEAM :

Programming & Development : Alexandra Zaïnal
Concept & original design : Baudouin d'Aumeries
Assistance for programming : Marc-Olivier Méhu
Technical & hardware support : Manuel Goepfert

Contact : metmap@orbifly.com




SOURCES & CREDITS :

   NOAA       Earth
Advisory